Time;durP1;ratioP1;P1;durP2;ratioP2;P2;SDS_P1;SDS_P2;PMS_P1;PMS_P2;Temp;Humidity;BMP_temperature;BMP_pressure;BME280_temperature;BME280_humidity;BME280_pressure;Samples;Min_cycle;Max_cycle;Signal;HPM_P1;HPM_P2
2022/05/29 00:02:12;;;;;;;;;;;;;;;;;;5039765;28;19913;-30
2022/05/29 00:07:25;;;;;;;;;;;;;;;;;;5486015;22;19923;-22
2022/05/29 00:09:52;;;;;;;;;;;;;;;;;;5058300;28;19920;-22
2022/05/29 00:12:19;;;;;;;;;;;;;;;;;;5041149;28;19925;-22
2022/05/29 00:14:47;;;;;;;;;;;;;;;;;;5040094;28;19913;-23
2022/05/29 00:22:45;;;;;;;;;;;;;;;;;;5056998;28;19977;-22
2022/05/29 00:25:14;;;;;;;;;;;;;;;;;;5059291;28;19971;-22
2022/05/29 00:30:25;;;;;;;;;;;;;;;;;;5057362;28;19928;-22
2022/05/29 00:32:52;;;;;;;;;;;;;;;;;;5039458;28;19912;-22
2022/05/29 00:35:19;;;;;;;;;;;;;;;;;;5057296;28;19924;-22
2022/05/29 00:37:47;;;;;;;;;;;;;;;;;;5058283;28;20288;-22
2022/05/29 00:40:20;;;;;;;;;;;;;;;;;;5057990;28;19917;-22
2022/05/29 00:42:46;;;;;;;;;;;;;;;;;;5058880;28;19920;-22
2022/05/29 00:45:13;;;;;;;;;;;;;;;;;;5057777;28;20251;-22
2022/05/29 00:47:40;;;;;;;;;;;;;;;;;;5040070;28;19919;-22
2022/05/29 00:50:07;;;;;;;;;;;;;;;;;;5057478;28;20259;-22
2022/05/29 00:52:34;;;;;;;;;;;;;;;;;;5056741;28;19986;-22
2022/05/29 00:55:01;;;;;;;;;;;;;;;;;;5056959;28;19924;-22
2022/05/29 00:57:27;;;;;;;;;;;;;;;;;;5039560;28;20259;-22
2022/05/29 01:00:03;;;;;;;;;;;;;;;;;;5056397;28;19916;-22
2022/05/29 01:02:30;;;;;;;;;;;;;;;;;;5057289;28;19991;-22
2022/05/29 01:05:07;;;;;;;;;;;;;;;;;;5039572;28;19999;-22
2022/05/29 01:07:35;;;;;;;;;;;;;;;;;;5038913;28;19920;-22
2022/05/29 01:18:20;;;;;;;;;;;;;;;;;;5417766;22;19925;-22
2022/05/29 01:20:47;;;;;;;;;;;;;;;;;;5057021;28;20317;-21
2022/05/29 01:23:14;;;;;;;;;;;;;;;;;;5039091;28;19909;-21
2022/05/29 01:25:41;;;;;;;;;;;;;;;;;;5056512;28;19913;-22
2022/05/29 01:28:08;;;;;;;;;;;;;;;;;;5038942;28;20211;-21
2022/05/29 01:30:34;;;;;;;;;;;;;;;;;;5056690;28;19916;-22
2022/05/29 01:33:01;;;;;;;;;;;;;;;;;;5059195;28;20250;-22
2022/05/29 01:35:28;;;;;;;;;;;;;;;;;;5060858;28;19959;-22
2022/05/29 01:37:55;;;;;;;;;;;;;;;;;;5060413;28;19948;-21
2022/05/29 01:40:21;;;;;;;;;;;;;;;;;;5060359;28;19912;-22
2022/05/29 01:42:48;;;;;;;;;;;;;;;;;;5060602;28;20327;-21
2022/05/29 01:45:15;;;;;;;;;;;;;;;;;;5060379;28;19912;-22
2022/05/29 01:47:42;;;;;;;;;;;;;;;;;;5042965;28;19923;-22
2022/05/29 01:50:10;;;;;;;;;;;;;;;;;;5060189;28;19928;-22
2022/05/29 01:52:37;;;;;;;;;;;;;;;;;;5059954;28;20248;-21
2022/05/29 01:55:04;;;;;;;;;;;;;;;;;;5060235;28;19989;-21
2022/05/29 01:57:31;;;;;;;;;;;;;;;;;;5042311;28;19913;-21
2022/05/29 01:59:58;;;;;;;;;;;;;;;;;;5060166;28;20220;-21
2022/05/29 02:02:24;;;;;;;;;;;;;;;;;;5042067;28;19912;-22
2022/05/29 02:04:51;;;;;;;;;;;;;;;;;;5059596;28;20263;-21
2022/05/29 02:10:04;;;;;;;;;;;;;;;;;;5060480;28;20366;-21
2022/05/29 02:12:31;;;;;;;;;;;;;;;;;;5060719;28;19908;-22
2022/05/29 02:14:57;;;;;;;;;;;;;;;;;;5059697;28;20311;-22
2022/05/29 02:17:25;;;;;;;;;;;;;;;;;;5059877;28;19949;-21
2022/05/29 02:19:51;;;;;;;;;;;;;;;;;;5059743;28;20030;-22
2022/05/29 02:22:18;;;;;;;;;;;;;;;;;;5059430;28;19932;-21
2022/05/29 02:24:45;;;;;;;;;;;;;;;;;;5059847;28;19913;-22
2022/05/29 02:27:11;;;;;;;;;;;;;;;;;;5059286;28;19968;-22
2022/05/29 02:29:39;;;;;;;;;;;;;;;;;;5059877;28;19917;-21
2022/05/29 02:32:06;;;;;;;;;;;;;;;;;;5041775;28;19913;-21
2022/05/29 02:34:32;;;;;;;;;;;;;;;;;;5041511;28;20343;-21
2022/05/29 02:36:59;;;;;;;;;;;;;;;;;;5041390;28;20319;-22
2022/05/29 02:39:26;;;;;;;;;;;;;;;;;;5041691;28;19966;-22
2022/05/29 02:41:52;;;;;;;;;;;;;;;;;;5041723;28;19936;-22
2022/05/29 02:44:19;;;;;;;;;;;;;;;;;;5059282;28;20328;-22
2022/05/29 02:46:46;;;;;;;;;;;;;;;;;;5041420;28;19920;-21
2022/05/29 02:49:13;;;;;;;;;;;;;;;;;;5059383;28;19920;-22
2022/05/29 02:51:39;;;;;;;;;;;;;;;;;;5058539;28;19912;-22
2022/05/29 02:54:06;;;;;;;;;;;;;;;;;;5058819;28;19912;-22
2022/05/29 02:56:33;;;;;;;;;;;;;;;;;;5041410;28;19959;-22
2022/05/29 02:58:59;;;;;;;;;;;;;;;;;;5058857;28;19913;-22
2022/05/29 03:01:26;;;;;;;;;;;;;;;;;;5040925;28;19912;-22
2022/05/29 03:03:53;;;;;;;;;;;;;;;;;;5041209;28;19928;-22
2022/05/29 03:06:21;;;;;;;;;;;;;;;;;;5058754;28;19913;-22
2022/05/29 03:08:47;;;;;;;;;;;;;;;;;;5058967;28;19924;-22
2022/05/29 03:11:14;;;;;;;;;;;;;;;;;;5059099;28;19970;-22
2022/05/29 03:13:41;;;;;;;;;;;;;;;;;;5059460;28;19913;-22
2022/05/29 03:16:09;;;;;;;;;;;;;;;;;;5059558;28;19912;-21
2022/05/29 03:18:35;;;;;;;;;;;;;;;;;;5037167;28;19990;-21
2022/05/29 03:21:02;;;;;;;;;;;;;;;;;;5038901;28;19920;-21
2022/05/29 03:23:28;;;;;;;;;;;;;;;;;;5037752;28;19971;-22
2022/05/29 03:25:55;;;;;;;;;;;;;;;;;;5038784;28;19913;-21
2022/05/29 03:28:22;;;;;;;;;;;;;;;;;;5038422;28;19931;-21
2022/05/29 03:30:49;;;;;;;;;;;;;;;;;;5038463;28;19928;-22
2022/05/29 03:33:16;;;;;;;;;;;;;;;;;;5038398;28;19943;-21
2022/05/29 03:35:44;;;;;;;;;;;;;;;;;;5039426;28;19940;-21
2022/05/29 03:38:10;;;;;;;;;;;;;;;;;;5038105;28;19913;-22
2022/05/29 03:40:39;;;;;;;;;;;;;;;;;;5038202;28;19920;-21
2022/05/29 03:43:06;;;;;;;;;;;;;;;;;;5038598;28;20007;-22
2022/05/29 03:45:33;;;;;;;;;;;;;;;;;;5037198;28;19952;-22
2022/05/29 03:48:01;;;;;;;;;;;;;;;;;;5038055;28;19908;-21
2022/05/29 03:50:27;;;;;;;;;;;;;;;;;;5036659;28;20003;-22
2022/05/29 03:52:54;;;;;;;;;;;;;;;;;;5037838;28;19967;-22
2022/05/29 03:55:21;;;;;;;;;;;;;;;;;;5037290;28;19924;-22
2022/05/29 03:57:47;;;;;;;;;;;;;;;;;;5038278;28;20046;-21
2022/05/29 04:00:14;;;;;;;;;;;;;;;;;;5038296;28;19968;-22
2022/05/29 04:02:42;;;;;;;;;;;;;;;;;;5037986;28;19992;-22
2022/05/29 04:05:08;;;;;;;;;;;;;;;;;;5036714;28;20511;-22
2022/05/29 04:13:05;;;;;;;;;;;;;;;;;;5037849;28;19925;-22
2022/05/29 04:15:31;;;;;;;;;;;;;;;;;;5037584;28;19913;-22
2022/05/29 04:17:58;;;;;;;;;;;;;;;;;;5037292;28;19909;-23
2022/05/29 04:20:25;;;;;;;;;;;;;;;;;;5056825;28;19928;-22
2022/05/29 04:22:52;;;;;;;;;;;;;;;;;;5057548;28;19913;-22
2022/05/29 04:25:18;;;;;;;;;;;;;;;;;;5040750;28;19923;-23
2022/05/29 04:27:45;;;;;;;;;;;;;;;;;;5057071;28;19912;-22
2022/05/29 04:30:12;;;;;;;;;;;;;;;;;;5039651;28;19928;-22
2022/05/29 04:35:23;;;;;;;;;;;;;;;;;;5057234;28;19967;-22
2022/05/29 04:37:50;;;;;;;;;;;;;;;;;;5057578;28;19909;-22
2022/05/29 04:40:17;;;;;;;;;;;;;;;;;;5057003;28;19912;-22
2022/05/29 04:42:44;;;;;;;;;;;;;;;;;;5056693;28;19916;-22
2022/05/29 04:45:11;;;;;;;;;;;;;;;;;;5057346;28;19948;-22
2022/05/29 04:47:37;;;;;;;;;;;;;;;;;;5039343;28;19976;-22
2022/05/29 04:50:04;;;;;;;;;;;;;;;;;;5057211;28;19920;-29
2022/05/29 04:52:32;;;;;;;;;;;;;;;;;;5056938;28;20401;-22
2022/05/29 04:54:59;;;;;;;;;;;;;;;;;;5057474;28;19923;-22
2022/05/29 04:57:25;;;;;;;;;;;;;;;;;;5056963;28;19971;-22
2022/05/29 04:59:52;;;;;;;;;;;;;;;;;;5039338;28;19917;-22
2022/05/29 05:02:18;;;;;;;;;;;;;;;;;;5056612;28;19913;-22
2022/05/29 05:04:45;;;;;;;;;;;;;;;;;;5057506;28;19966;-23
2022/05/29 05:07:12;;;;;;;;;;;;;;;;;;5042154;28;19909;-22
2022/05/29 05:09:38;;;;;;;;;;;;;;;;;;5061145;28;20375;-22
2022/05/29 05:12:06;;;;;;;;;;;;;;;;;;5060784;28;19909;-22
2022/05/29 05:14:33;;;;;;;;;;;;;;;;;;5043475;28;19912;-22
2022/05/29 05:17:00;;;;;;;;;;;;;;;;;;5060957;28;19924;-22
2022/05/29 05:19:27;;;;;;;;;;;;;;;;;;5039407;28;19928;-22
2022/05/29 05:21:54;;;;;;;;;;;;;;;;;;5041041;28;19909;-22
2022/05/29 05:24:21;;;;;;;;;;;;;;;;;;5039876;28;19914;-22
2022/05/29 05:26:48;;;;;;;;;;;;;;;;;;5040945;28;19913;-22
2022/05/29 05:29:14;;;;;;;;;;;;;;;;;;5039693;28;19932;-21
2022/05/29 05:31:41;;;;;;;;;;;;;;;;;;5040793;28;19978;-22
2022/05/29 05:34:08;;;;;;;;;;;;;;;;;;5040497;28;19913;-22
2022/05/29 05:36:35;;;;;;;;;;;;;;;;;;5040528;28;19936;-22
2022/05/29 05:39:02;;;;;;;;;;;;;;;;;;5040064;28;19924;-22
2022/05/29 05:41:29;;;;;;;;;;;;;;;;;;5039267;28;19917;-21
2022/05/29 05:43:55;;;;;;;;;;;;;;;;;;5040791;28;19940;-22
2022/05/29 05:46:22;;;;;;;;;;;;;;;;;;5040251;28;19909;-22
2022/05/29 05:48:49;;;;;;;;;;;;;;;;;;5040090;28;20397;-22
2022/05/29 05:51:16;;;;;;;;;;;;;;;;;;5040102;28;19924;-22
2022/05/29 05:53:43;;;;;;;;;;;;;;;;;;5038972;28;19917;-22
2022/05/29 05:56:10;;;;;;;;;;;;;;;;;;5039036;28;20309;-22
2022/05/29 05:58:37;;;;;;;;;;;;;;;;;;5039837;28;19913;-22
2022/05/29 06:01:05;;;;;;;;;;;;;;;;;;5040929;28;20320;-22
2022/05/29 06:03:32;;;;;;;;;;;;;;;;;;5040199;28;19913;-22
2022/05/29 06:05:58;;;;;;;;;;;;;;;;;;5039320;28;19913;-22
2022/05/29 06:08:26;;;;;;;;;;;;;;;;;;5039516;28;20344;-22
2022/05/29 06:10:52;;;;;;;;;;;;;;;;;;5040320;28;20005;-22
2022/05/29 06:13:19;;;;;;;;;;;;;;;;;;5039111;28;19998;-22
2022/05/29 06:15:46;;;;;;;;;;;;;;;;;;5038409;28;19914;-22
2022/05/29 06:18:13;;;;;;;;;;;;;;;;;;5038563;28;19948;-22
2022/05/29 06:20:39;;;;;;;;;;;;;;;;;;5059564;28;19921;-22
2022/05/29 06:23:06;;;;;;;;;;;;;;;;;;5058944;28;19923;-22
2022/05/29 06:25:32;;;;;;;;;;;;;;;;;;5041611;28;20407;-22
2022/05/29 06:28:03;;;;;;;;;;;;;;;;;;5041835;28;19912;-22
2022/05/29 06:30:30;;;;;;;;;;;;;;;;;;5041790;28;19927;-22
2022/05/29 06:32:57;;;;;;;;;;;;;;;;;;5041470;28;20035;-22
2022/05/29 06:35:24;;;;;;;;;;;;;;;;;;5058969;28;20256;-22
2022/05/29 06:37:52;;;;;;;;;;;;;;;;;;5041455;28;19909;-22
2022/05/29 06:40:18;;;;;;;;;;;;;;;;;;5058713;28;20340;-22
2022/05/29 06:42:45;;;;;;;;;;;;;;;;;;5059179;28;19923;-22
2022/05/29 06:45:11;;;;;;;;;;;;;;;;;;5059306;28;19913;-22
2022/05/29 06:47:39;;;;;;;;;;;;;;;;;;5058869;28;19912;-22
2022/05/29 06:50:05;;;;;;;;;;;;;;;;;;5041220;28;19913;-22
2022/05/29 06:52:32;;;;;;;;;;;;;;;;;;5059341;28;19912;-22
2022/05/29 06:54:59;;;;;;;;;;;;;;;;;;5058851;28;19913;-22
2022/05/29 06:57:46;;;;;;;;;;;;;;;;;;5041069;28;19908;-22
2022/05/29 07:08:29;;;;;;;;;;;;;;;;;;5058235;28;19966;-22
2022/05/29 07:10:55;;;;;;;;;;;;;;;;;;5058431;28;19917;-22
2022/05/29 07:13:22;;;;;;;;;;;;;;;;;;5059110;28;19922;-22
2022/05/29 07:15:49;;;;;;;;;;;;;;;;;;5058622;28;19912;-22
2022/05/29 07:18:17;;;;;;;;;;;;;;;;;;5058222;28;20296;-22
2022/05/29 07:20:43;;;;;;;;;;;;;;;;;;5040768;28;19974;-22
2022/05/29 07:23:11;;;;;;;;;;;;;;;;;;5058306;28;19909;-21
2022/05/29 07:25:38;;;;;;;;;;;;;;;;;;5058471;28;19999;-22
2022/05/29 07:28:05;;;;;;;;;;;;;;;;;;5058472;28;20003;-23
2022/05/29 07:30:32;;;;;;;;;;;;;;;;;;5057185;28;19917;-22
2022/05/29 07:33:00;;;;;;;;;;;;;;;;;;5057879;28;19909;-22
2022/05/29 07:35:27;;;;;;;;;;;;;;;;;;5058362;28;19913;-22
2022/05/29 07:37:54;;;;;;;;;;;;;;;;;;5058066;28;19913;-22
2022/05/29 07:40:21;;;;;;;;;;;;;;;;;;5058367;28;19913;-22
2022/05/29 07:45:33;;;;;;;;;;;;;;;;;;5058302;28;19924;-22
2022/05/29 07:48:00;;;;;;;;;;;;;;;;;;5057958;28;19930;-22
2022/05/29 07:50:27;;;;;;;;;;;;;;;;;;5057910;28;20220;-22
2022/05/29 07:52:54;;;;;;;;;;;;;;;;;;5058060;28;19909;-22
2022/05/29 07:55:21;;;;;;;;;;;;;;;;;;5057729;28;20351;-22
2022/05/29 07:57:47;;;;;;;;;;;;;;;;;;5057728;28;20302;-22
2022/05/29 08:00:14;;;;;;;;;;;;;;;;;;5057698;28;20298;-22
2022/05/29 08:02:40;;;;;;;;;;;;;;;;;;5057624;28;19978;-22
2022/05/29 08:05:07;;;;;;;;;;;;;;;;;;5058105;28;19999;-22
2022/05/29 08:07:34;;;;;;;;;;;;;;;;;;5057965;28;20250;-22
2022/05/29 08:10:00;;;;;;;;;;;;;;;;;;5057364;28;19924;-22
2022/05/29 08:12:28;;;;;;;;;;;;;;;;;;5057334;28;19962;-23
2022/05/29 08:14:55;;;;;;;;;;;;;;;;;;5057889;28;19913;-22
2022/05/29 08:17:21;;;;;;;;;;;;;;;;;;5057292;28;19913;-22
2022/05/29 08:19:48;;;;;;;;;;;;;;;;;;5057279;28;20022;-22
2022/05/29 08:22:15;;;;;;;;;;;;;;;;;;5057604;28;19914;-22
2022/05/29 08:32:57;;;;;;;;;;;;;;;;;;5057554;28;19920;-22
2022/05/29 08:35:25;;;;;;;;;;;;;;;;;;5056890;28;19941;-22
2022/05/29 08:37:52;;;;;;;;;;;;;;;;;;5039416;28;19909;-22
2022/05/29 08:40:19;;;;;;;;;;;;;;;;;;5038877;28;19923;-21
2022/05/29 08:42:46;;;;;;;;;;;;;;;;;;5057535;28;19915;-22
2022/05/29 08:45:15;;;;;;;;;;;;;;;;;;5057275;28;19928;-22
2022/05/29 08:47:45;;;;;;;;;;;;;;;;;;5057578;28;20284;-22
2022/05/29 08:50:13;;;;;;;;;;;;;;;;;;5056776;28;19921;-22
2022/05/29 08:52:40;;;;;;;;;;;;;;;;;;5039771;28;19908;-21
2022/05/29 08:55:06;;;;;;;;;;;;;;;;;;5057504;28;19923;-22
2022/05/29 08:57:33;;;;;;;;;;;;;;;;;;5056866;28;19912;-22
2022/05/29 09:00:00;;;;;;;;;;;;;;;;;;5057197;28;19912;-21
2022/05/29 09:02:27;;;;;;;;;;;;;;;;;;5057170;28;19991;-22
2022/05/29 09:04:54;;;;;;;;;;;;;;;;;;5056892;28;19917;-21
2022/05/29 09:07:22;;;;;;;;;;;;;;;;;;5057567;28;19936;-22
2022/05/29 09:09:49;;;;;;;;;;;;;;;;;;5039385;28;19909;-21
2022/05/29 09:12:15;;;;;;;;;;;;;;;;;;5057668;28;19912;-22
2022/05/29 09:14:43;;;;;;;;;;;;;;;;;;5039391;28;19908;-21
2022/05/29 09:17:10;;;;;;;;;;;;;;;;;;5057128;28;19940;-23
2022/05/29 09:19:37;;;;;;;;;;;;;;;;;;5056621;28;19921;-22
2022/05/29 09:22:04;;;;;;;;;;;;;;;;;;5057291;28;19917;-22
2022/05/29 09:24:30;;;;;;;;;;;;;;;;;;5056497;28;19909;-22
2022/05/29 09:26:57;;;;;;;;;;;;;;;;;;5056535;28;19923;-22
2022/05/29 09:29:24;;;;;;;;;;;;;;;;;;5056890;28;20429;-22
2022/05/29 09:31:51;;;;;;;;;;;;;;;;;;5056755;28;19917;-23
2022/05/29 09:34:18;;;;;;;;;;;;;;;;;;5056728;28;19928;-22
2022/05/29 09:36:45;;;;;;;;;;;;;;;;;;5056270;28;19971;-22
2022/05/29 09:39:12;;;;;;;;;;;;;;;;;;5056493;28;20012;-21
2022/05/29 09:41:39;;;;;;;;;;;;;;;;;;5056334;28;19939;-22
2022/05/29 09:44:06;;;;;;;;;;;;;;;;;;5056339;28;19913;-21
2022/05/29 09:46:32;;;;;;;;;;;;;;;;;;5056398;28;19909;-21
2022/05/29 09:51:44;;;;;;;;;;;;;;;;;;5056432;28;19924;-22
2022/05/29 09:54:10;;;;;;;;;;;;;;;;;;5059458;28;19947;-22
2022/05/29 09:56:37;;;;;;;;;;;;;;;;;;5042275;28;19920;-22
2022/05/29 09:59:04;;;;;;;;;;;;;;;;;;5060288;28;20054;-22
2022/05/29 10:01:33;;;;;;;;;;;;;;;;;;5060032;28;19974;-22
2022/05/29 10:04:00;;;;;;;;;;;;;;;;;;5060226;28;20020;-23
2022/05/29 10:06:27;;;;;;;;;;;;;;;;;;5059671;28;19913;-22
2022/05/29 10:08:54;;;;;;;;;;;;;;;;;;5059608;28;19913;-22
2022/05/29 10:11:21;;;;;;;;;;;;;;;;;;5059760;28;19917;-22
2022/05/29 10:13:48;;;;;;;;;;;;;;;;;;5060325;28;19915;-22
2022/05/29 10:16:15;;;;;;;;;;;;;;;;;;5059953;28;19913;-21
2022/05/29 10:18:43;;;;;;;;;;;;;;;;;;5059727;28;20241;-21
2022/05/29 10:21:09;;;;;;;;;;;;;;;;;;5041908;28;20002;-22
2022/05/29 10:23:36;;;;;;;;;;;;;;;;;;5041917;28;19909;-22
2022/05/29 10:26:03;;;;;;;;;;;;;;;;;;5059603;28;20359;-22
2022/05/29 10:28:30;;;;;;;;;;;;;;;;;;5041847;28;19920;-22
2022/05/29 10:30:58;;;;;;;;;;;;;;;;;;5042010;28;19917;-22
2022/05/29 10:33:25;;;;;;;;;;;;;;;;;;5059538;28;19947;-22
2022/05/29 10:35:52;;;;;;;;;;;;;;;;;;5041897;28;19920;-22
2022/05/29 10:38:19;;;;;;;;;;;;;;;;;;5041737;28;19970;-22
2022/05/29 10:40:46;;;;;;;;;;;;;;;;;;5041363;28;19923;-22
2022/05/29 10:43:13;;;;;;;;;;;;;;;;;;5059344;28;19939;-22
2022/05/29 10:45:40;;;;;;;;;;;;;;;;;;5041385;28;19913;-22
2022/05/29 10:48:07;;;;;;;;;;;;;;;;;;5059295;28;20004;-21
2022/05/29 10:50:35;;;;;;;;;;;;;;;;;;5058985;28;19917;-22
2022/05/29 10:53:01;;;;;;;;;;;;;;;;;;5058850;28;19908;-22
2022/05/29 10:55:28;;;;;;;;;;;;;;;;;;5041214;28;20057;-22
2022/05/29 10:57:56;;;;;;;;;;;;;;;;;;5040991;28;19909;-22
2022/05/29 11:00:23;;;;;;;;;;;;;;;;;;5058995;28;19913;-22
2022/05/29 11:05:39;;;;;;;;;;;;;;;;;;5058880;28;19970;-22
2022/05/29 11:08:06;;;;;;;;;;;;;;;;;;5041114;28;19905;-22
2022/05/29 11:24:33;;;;;;;;;;;;;;;;;;5034785;26;19928;-22
2022/05/29 11:29:51;;;;;;;;;;;;;;;;;;5078939;28;20410;-21
2022/05/29 11:35:03;;;;;;;;;;;;;;;;;;5077806;28;19939;-22
2022/05/29 11:37:38;;;;;;;;;;;;;;;;;;5080192;28;19923;-22
2022/05/29 11:42:50;;;;;;;;;;;;;;;;;;5078167;28;19939;-22
2022/05/29 11:45:16;;;;;;;;;;;;;;;;;;5079292;28;19965;-22
2022/05/29 12:01:40;;;;;;;;;;;;;;;;;;5079046;28;19923;-22
2022/05/29 12:04:07;;;;;;;;;;;;;;;;;;5078615;28;19912;-22
2022/05/29 12:09:20;;;;;;;;;;;;;;;;;;4774727;26;19924;-24
2022/05/29 12:11:48;;;;;;;;;;;;;;;;;;5057440;28;19916;-23
2022/05/29 12:14:15;;;;;;;;;;;;;;;;;;5039851;28;19913;-23
2022/05/29 12:22:15;;;;;;;;;;;;;;;;;;5060864;28;20362;-23
2022/05/29 12:27:41;;;;;;;;;;;;;;;;;;5057949;28;19974;-23
2022/05/29 12:30:24;;;;;;;;;;;;;;;;;;5056496;28;20307;-23
2022/05/29 12:35:43;;;;;;;;;;;;;;;;;;5059198;28;20278;-23
2022/05/29 12:38:10;;;;;;;;;;;;;;;;;;5039169;28;19913;-23
2022/05/29 12:40:37;;;;;;;;;;;;;;;;;;5056781;28;19925;-23
2022/05/29 12:45:54;;;;;;;;;;;;;;;;;;5056334;28;19978;-24
2022/05/29 12:48:20;;;;;;;;;;;;;;;;;;5054492;28;19923;-24
2022/05/29 12:50:46;;;;;;;;;;;;;;;;;;5054336;28;19913;-24
2022/05/29 12:53:12;;;;;;;;;;;;;;;;;;5054422;28;19959;-24
2022/05/29 12:55:38;;;;;;;;;;;;;;;;;;5054320;28;19909;-24
2022/05/29 12:58:04;;;;;;;;;;;;;;;;;;5054322;28;20378;-24
2022/05/29 13:00:41;;;;;;;;;;;;;;;;;;5054541;28;20247;-23
2022/05/29 13:03:08;;;;;;;;;;;;;;;;;;5057040;28;19974;-23
2022/05/29 13:08:20;;;;;;;;;;;;;;;;;;4440691;28;19974;-28
2022/05/29 13:10:47;;;;;;;;;;;;;;;;;;5056707;28;19943;-23
2022/05/29 13:13:13;;;;;;;;;;;;;;;;;;5039103;28;20414;-23
2022/05/29 13:20:58;;;;;;;;;;;;;;;;;;5055911;28;19967;-23
2022/05/29 13:23:28;;;;;;;;;;;;;;;;;;5057276;28;19962;-23
2022/05/29 13:25:58;;;;;;;;;;;;;;;;;;5037697;28;19920;-23
2022/05/29 13:28:28;;;;;;;;;;;;;;;;;;5061679;28;20330;-23
2022/05/29 13:33:40;;;;;;;;;;;;;;;;;;5059566;28;20095;-23
2022/05/29 13:36:08;;;;;;;;;;;;;;;;;;5060135;28;20372;-23
2022/05/29 13:38:35;;;;;;;;;;;;;;;;;;5060552;28;20236;-23
2022/05/29 13:41:02;;;;;;;;;;;;;;;;;;5060234;28;19924;-23
2022/05/29 13:43:29;;;;;;;;;;;;;;;;;;5060693;28;19970;-23
2022/05/29 13:45:56;;;;;;;;;;;;;;;;;;5060706;28;19919;-24
2022/05/29 13:51:08;;;;;;;;;;;;;;;;;;5059822;28;19927;-23
2022/05/29 13:53:35;;;;;;;;;;;;;;;;;;5061127;28;19920;-23
2022/05/29 13:56:03;;;;;;;;;;;;;;;;;;5059771;28;19913;-23
2022/05/29 14:04:03;;;;;;;;;;;;;;;;;;5059043;28;20377;-23
2022/05/29 14:12:00;;;;;;;;;;;;;;;;;;5060490;28;20005;-23
2022/05/29 14:14:26;;;;;;;;;;;;;;;;;;5059336;28;19920;-23
2022/05/29 14:16:55;;;;;;;;;;;;;;;;;;5059713;28;19982;-23
2022/05/29 14:24:56;;;;;;;;;;;;;;;;;;5042521;28;19924;-23
2022/05/29 14:28:02;;;;;;;;;;;;;;;;;;5043028;28;19928;-23
2022/05/29 14:30:26;;;;;;;;;;;;;;;;;;5041917;28;20251;-23
2022/05/29 14:35:46;;;;;;;;;;;;;;;;;;5042973;28;19924;-23
2022/05/29 14:41:03;;;;;;;;;;;;;;;;;;5042274;28;20247;-23
2022/05/29 14:49:14;;;;;;;;;;;;;;;;;;5042582;28;19970;-24
2022/05/29 14:51:47;;;;;;;;;;;;;;;;;;5043032;28;19917;-23
2022/05/29 14:57:11;;;;;;;;;;;;;;;;;;5041432;28;20355;-23
2022/05/29 14:59:38;;;;;;;;;;;;;;;;;;5040530;28;19996;-24
2022/05/29 15:02:06;;;;;;;;;;;;;;;;;;5038563;28;19909;-23
2022/05/29 15:04:33;;;;;;;;;;;;;;;;;;5039040;28;20354;-23
2022/05/29 15:12:31;;;;;;;;;;;;;;;;;;5039614;28;20016;-23
2022/05/29 15:15:01;;;;;;;;;;;;;;;;;;5040079;28;19909;-23
2022/05/29 15:17:28;;;;;;;;;;;;;;;;;;5039700;28;19913;-23
2022/05/29 15:25:24;;;;;;;;;;;;;;;;;;5058263;28;20309;-23
2022/05/29 15:41:49;;;;;;;;;;;;;;;;;;5059736;28;20330;-25
2022/05/29 15:44:16;;;;;;;;;;;;;;;;;;5058274;28;19924;-25
2022/05/29 15:46:45;;;;;;;;;;;;;;;;;;5041551;28;19956;-25
2022/05/29 15:49:12;;;;;;;;;;;;;;;;;;5058625;28;20004;-25
2022/05/29 15:51:39;;;;;;;;;;;;;;;;;;5039241;28;19935;-25
2022/05/29 15:54:06;;;;;;;;;;;;;;;;;;5058027;28;19916;-25
2022/05/29 15:56:32;;;;;;;;;;;;;;;;;;5057660;28;19963;-25
2022/05/29 15:59:00;;;;;;;;;;;;;;;;;;5039958;28;19912;-25
2022/05/29 16:01:27;;;;;;;;;;;;;;;;;;5058282;28;19921;-25
2022/05/29 16:06:41;;;;;;;;;;;;;;;;;;5060675;28;20066;-25
2022/05/29 16:09:14;;;;;;;;;;;;;;;;;;5055769;28;19912;-25
2022/05/29 16:11:44;;;;;;;;;;;;;;;;;;5057846;28;19912;-25
2022/05/29 16:19:57;;;;;;;;;;;;;;;;;;5057802;28;19935;-26
2022/05/29 16:22:24;;;;;;;;;;;;;;;;;;5057855;28;19917;-26
2022/05/29 16:24:55;;;;;;;;;;;;;;;;;;5057709;28;19909;-26
2022/05/29 16:27:23;;;;;;;;;;;;;;;;;;5040579;28;19912;-26
2022/05/29 16:29:51;;;;;;;;;;;;;;;;;;5056298;28;19920;-25
2022/05/29 16:49:12;;;;;;;;;;;;;;;;;;5057975;28;20332;-25
2022/05/29 16:51:39;;;;;;;;;;;;;;;;;;5040273;28;19913;-25
2022/05/29 16:56:51;;;;;;;;;;;;;;;;;;5059147;28;20271;-25
2022/05/29 16:59:18;;;;;;;;;;;;;;;;;;5057071;28;19913;-25
2022/05/29 17:01:45;;;;;;;;;;;;;;;;;;5040844;28;19923;-25
2022/05/29 17:04:12;;;;;;;;;;;;;;;;;;5061130;28;19913;-25
2022/05/29 17:06:42;;;;;;;;;;;;;;;;;;5061072;28;20331;-25
2022/05/29 17:11:54;;;;;;;;;;;;;;;;;;5061210;28;19923;-25
2022/05/29 17:14:21;;;;;;;;;;;;;;;;;;5060406;28;19934;-25
2022/05/29 17:16:48;;;;;;;;;;;;;;;;;;5042784;28;19909;-25
2022/05/29 17:19:14;;;;;;;;;;;;;;;;;;5060629;28;19943;-25
2022/05/29 17:24:33;;;;;;;;;;;;;;;;;;5062027;28;20019;-25
2022/05/29 17:27:10;;;;;;;;;;;;;;;;;;5061307;28;19920;-26
2022/05/29 17:32:21;;;;;;;;;;;;;;;;;;5061007;28;20007;-25
2022/05/29 17:34:48;;;;;;;;;;;;;;;;;;5061771;28;20352;-25
2022/05/29 17:37:16;;;;;;;;;;;;;;;;;;5060008;28;19909;-25
2022/05/29 17:53:44;;;;;;;;;;;;;;;;;;5191042;22;20250;-23
2022/05/29 17:56:11;;;;;;;;;;;;;;;;;;5059826;28;19987;-28
2022/05/29 18:01:30;;;;;;;;;;;;;;;;;;5061536;28;19919;-23
2022/05/29 18:03:58;;;;;;;;;;;;;;;;;;5060526;28;19916;-23
2022/05/29 18:09:10;;;;;;;;;;;;;;;;;;5060371;28;19966;-23
2022/05/29 18:11:36;;;;;;;;;;;;;;;;;;5042123;28;20347;-23
2022/05/29 18:19:56;;;;;;;;;;;;;;;;;;5000113;28;19928;-23
2022/05/29 18:22:47;;;;;;;;;;;;;;;;;;5052866;28;20000;-24
2022/05/29 18:28:15;;;;;;;;;;;;;;;;;;5059385;28;19928;-23
2022/05/29 18:30:48;;;;;;;;;;;;;;;;;;5058849;28;20361;-23
2022/05/29 18:36:07;;;;;;;;;;;;;;;;;;5059822;28;19923;-23
2022/05/29 18:41:18;;;;;;;;;;;;;;;;;;5059883;28;19978;-23
2022/05/29 18:43:45;;;;;;;;;;;;;;;;;;5058963;28;20000;-23
2022/05/29 18:46:12;;;;;;;;;;;;;;;;;;5043659;28;19909;-23
2022/05/29 18:51:41;;;;;;;;;;;;;;;;;;5058300;28;19923;-23
2022/05/29 18:59:49;;;;;;;;;;;;;;;;;;5035540;26;19925;-23
2022/05/29 19:02:15;;;;;;;;;;;;;;;;;;5018237;28;20348;-23
2022/05/29 19:04:42;;;;;;;;;;;;;;;;;;5018362;28;20011;-23
2022/05/29 19:07:09;;;;;;;;;;;;;;;;;;5018759;28;20021;-23
2022/05/29 19:09:36;;;;;;;;;;;;;;;;;;5018776;28;19909;-23
2022/05/29 19:12:05;;;;;;;;;;;;;;;;;;5018972;28;19915;-23
2022/05/29 19:14:32;;;;;;;;;;;;;;;;;;5017740;28;19925;-23
2022/05/29 19:16:59;;;;;;;;;;;;;;;;;;5017898;28;20269;-23
2022/05/29 19:19:26;;;;;;;;;;;;;;;;;;5019021;28;19921;-23
2022/05/29 19:21:54;;;;;;;;;;;;;;;;;;5017556;28;20004;-23
2022/05/29 19:24:21;;;;;;;;;;;;;;;;;;5018474;28;19913;-23
2022/05/29 19:26:47;;;;;;;;;;;;;;;;;;5018829;28;19916;-23
2022/05/29 19:29:14;;;;;;;;;;;;;;;;;;5017811;28;19913;-23
2022/05/29 19:31:43;;;;;;;;;;;;;;;;;;5018510;28;20008;-23
2022/05/29 19:34:10;;;;;;;;;;;;;;;;;;5018256;28;19983;-23
2022/05/29 19:36:38;;;;;;;;;;;;;;;;;;5017449;28;19975;-23
2022/05/29 19:39:07;;;;;;;;;;;;;;;;;;5017343;28;19913;-23
2022/05/29 19:41:34;;;;;;;;;;;;;;;;;;5018172;28;19913;-23
2022/05/29 19:44:01;;;;;;;;;;;;;;;;;;5018748;28;20241;-23
2022/05/29 19:46:28;;;;;;;;;;;;;;;;;;5017295;28;19910;-23
2022/05/29 19:48:54;;;;;;;;;;;;;;;;;;5017869;28;19914;-23
2022/05/29 19:51:21;;;;;;;;;;;;;;;;;;5016653;28;19913;-25
2022/05/29 19:53:48;;;;;;;;;;;;;;;;;;5018046;28;20328;-25
2022/05/29 19:56:15;;;;;;;;;;;;;;;;;;5017298;28;19913;-23
2022/05/29 19:58:42;;;;;;;;;;;;;;;;;;5018149;28;19910;-23
2022/05/29 20:01:08;;;;;;;;;;;;;;;;;;5016733;28;19965;-23
2022/05/29 20:03:35;;;;;;;;;;;;;;;;;;5018043;28;19997;-23
2022/05/29 20:06:02;;;;;;;;;;;;;;;;;;5016657;28;19936;-23
2022/05/29 20:08:28;;;;;;;;;;;;;;;;;;5017482;28;19960;-23
2022/05/29 20:10:55;;;;;;;;;;;;;;;;;;5016543;28;19929;-27
2022/05/29 20:13:22;;;;;;;;;;;;;;;;;;5017489;28;19913;-23
2022/05/29 20:15:49;;;;;;;;;;;;;;;;;;5017554;28;19914;-24
2022/05/29 20:18:16;;;;;;;;;;;;;;;;;;5017364;28;20013;-23
2022/05/29 20:20:43;;;;;;;;;;;;;;;;;;5017860;28;20036;-23
2022/05/29 20:23:10;;;;;;;;;;;;;;;;;;5017531;28;19968;-23
2022/05/29 20:25:37;;;;;;;;;;;;;;;;;;5017874;28;19921;-23
2022/05/29 20:28:05;;;;;;;;;;;;;;;;;;5017394;28;19910;-23
2022/05/29 20:30:32;;;;;;;;;;;;;;;;;;5017378;28;20312;-23
2022/05/29 20:32:59;;;;;;;;;;;;;;;;;;5016216;28;19910;-24
2022/05/29 20:35:26;;;;;;;;;;;;;;;;;;5016671;28;20337;-23
2022/05/29 20:37:53;;;;;;;;;;;;;;;;;;5016694;28;19913;-23
2022/05/29 20:40:20;;;;;;;;;;;;;;;;;;5017263;28;19914;-23
2022/05/29 20:42:47;;;;;;;;;;;;;;;;;;5016236;28;20221;-23
2022/05/29 20:45:14;;;;;;;;;;;;;;;;;;5015983;28;19920;-23
2022/05/29 20:47:42;;;;;;;;;;;;;;;;;;5016807;28;20332;-25
2022/05/29 20:50:11;;;;;;;;;;;;;;;;;;5017125;28;19913;-23
2022/05/29 20:52:38;;;;;;;;;;;;;;;;;;5016746;28;20016;-23
2022/05/29 20:55:04;;;;;;;;;;;;;;;;;;5017296;28;19979;-23
2022/05/29 20:57:33;;;;;;;;;;;;;;;;;;5015976;28;19909;-23
2022/05/29 21:00:01;;;;;;;;;;;;;;;;;;5017956;28;19953;-23
2022/05/29 21:02:29;;;;;;;;;;;;;;;;;;5036795;28;19913;-23
2022/05/29 21:04:55;;;;;;;;;;;;;;;;;;5019095;28;19913;-23